21kousinmaru — JD2168 — position and weather

sailwx.info

Track history (hours):
 
Tides and Currents Weather Stations Pressure Air Temp Water Temp Dewpoint Dewpoint Depression Visibility Wind Speed Wind Dir Waves Ship Positions

21kousinmaru

Last reported at 2014-Oct-22 09:14 UTC. Time now 2014-Oct-26 03:01 UTC.
Position N 34°04' E 132°38'.

Length 68 m; draft 4 m.

Type: Tanker. MMSI: 431501835.

Date/timePositionNaut miles runAvg speedWind from/ knotsBaromVisibWave heightAir tempDewpointWater temp
2014-Oct-22 09:14N 34°04' E 132°38'1210.7
2014-Oct-22 08:04N 34°07' E 132°23'9 1.4
2014-Oct-22 01:15N 34°13' E 132°15'0 0.0
2014-Oct-22 00:32N 34°13' E 132°15'0 0.0
2014-Oct-21 23:32N 34°13' E 132°15'0 0.0
2014-Oct-21 22:30N 34°13' E 132°15'0 0.0
2014-Oct-21 19:33N 34°13' E 132°15'0 0.0
2014-Oct-21 18:33N 34°13' E 132°15'0 0.0
2014-Oct-21 17:33N 34°13' E 132°15'0 0.0
2014-Oct-21 16:32N 34°13' E 132°15'0 0.0
2014-Oct-21 15:33N 34°13' E 132°15'0 0.0
2014-Oct-21 14:33N 34°13' E 132°15'0 0.0
2014-Oct-21 07:24N 34°13' E 132°15'6 6.6
2014-Oct-21 06:31N 34°09' E 132°19'136 7.6
2014-Oct-20 12:32N 34°37' E 135°01'1313.1
2014-Oct-20 11:33N 34°35' E 135°16'8 1.5
2014-Oct-20 06:26N 34°33' E 135°26'8 9.5
2014-Oct-20 05:33N 34°34' E 135°15'1413.6
2014-Oct-20 04:30N 34°37' E 134°59'239 5.2
2014-Oct-18 06:19N 35°13' E 139°46'1013.1
2014-Oct-18 05:34N 35°22' E 139°42'9 0.5
2014-Oct-17 09:19N 35°28' E 139°51'911.9
2014-Oct-17 08:33N 35°21' E 139°45'24610.0
2014-Oct-16 08:06N 34°08' E 134°60'2011.2
2014-Oct-16 06:18N 34°26' E 135°09'1012.6
2014-Oct-16 05:31N 34°32' E 135°19'6 1.1
2014-Oct-16 00:32N 34°33' E 135°25'3 3.5
2014-Oct-15 23:33N 34°33' E 135°21'2 1.5
2014-Oct-15 22:28N 34°32' E 135°19'0 0.0
2014-Oct-15 14:28N 34°32' E 135°19'1011.4
2014-Oct-15 13:33N 34°26' E 135°09'1411.5
2014-Oct-15 12:20N 34°14' E 134°59'24310.2
2014-Oct-14 12:31N 35°17' E 139°45'1111.1
2014-Oct-14 11:33N 35°27' E 139°48'  
Track history (hours):
 
Tides and Currents Weather Stations Pressure Air Temp Water Temp Dewpoint Dewpoint Depression Visibility Wind Speed Wind Dir Waves Ship Positions

21kousinmaru

Last reported at 2014-Oct-22 09:14 UTC. Time now 2014-Oct-26 03:01 UTC.
Position N 34°04' E 132°38'.

Length 68 m; draft 4 m.

Type: Tanker. MMSI: 431501835.

Date/timePositionNaut miles runAvg speedWind from/ knotsBaromVisibWave heightAir tempDewpointWater temp
2014-Oct-22 09:14N 34°04' E 132°38'1210.7
2014-Oct-22 08:04N 34°07' E 132°23'9 1.4
2014-Oct-22 01:15N 34°13' E 132°15'0 0.0
2014-Oct-22 00:32N 34°13' E 132°15'0 0.0
2014-Oct-21 23:32N 34°13' E 132°15'0 0.0
2014-Oct-21 22:30N 34°13' E 132°15'0 0.0
2014-Oct-21 19:33N 34°13' E 132°15'0 0.0
2014-Oct-21 18:33N 34°13' E 132°15'0 0.0
2014-Oct-21 17:33N 34°13' E 132°15'0 0.0
2014-Oct-21 16:32N 34°13' E 132°15'0 0.0
2014-Oct-21 15:33N 34°13' E 132°15'0 0.0
2014-Oct-21 14:33N 34°13' E 132°15'0 0.0
2014-Oct-21 07:24N 34°13' E 132°15'6 6.6
2014-Oct-21 06:31N 34°09' E 132°19'136 7.6
2014-Oct-20 12:32N 34°37' E 135°01'1313.1
2014-Oct-20 11:33N 34°35' E 135°16'8 1.5
2014-Oct-20 06:26N 34°33' E 135°26'8 9.5
2014-Oct-20 05:33N 34°34' E 135°15'1413.6
2014-Oct-20 04:30N 34°37' E 134°59'239 5.2
2014-Oct-18 06:19N 35°13' E 139°46'1013.1
2014-Oct-18 05:34N 35°22' E 139°42'9 0.5
2014-Oct-17 09:19N 35°28' E 139°51'911.9
2014-Oct-17 08:33N 35°21' E 139°45'24610.0
2014-Oct-16 08:06N 34°08' E 134°60'2011.2
2014-Oct-16 06:18N 34°26' E 135°09'1012.6
2014-Oct-16 05:31N 34°32' E 135°19'6 1.1
2014-Oct-16 00:32N 34°33' E 135°25'3 3.5
2014-Oct-15 23:33N 34°33' E 135°21'2 1.5
2014-Oct-15 22:28N 34°32' E 135°19'0 0.0
2014-Oct-15 14:28N 34°32' E 135°19'1011.4
2014-Oct-15 13:33N 34°26' E 135°09'1411.5
2014-Oct-15 12:20N 34°14' E 134°59'24310.2
2014-Oct-14 12:31N 35°17' E 139°45'1111.1
2014-Oct-14 11:33N 35°27' E 139°48'  

Dump ship's entire track history